createdAt,value
2022-07-26T00:00:15.492Z,75.50
2022-07-26T00:02:48.060Z,75.20
2022-07-26T00:05:26.347Z,75.10
2022-07-26T00:08:12.005Z,75.00
2022-07-26T00:10:45.962Z,75.00
2022-07-26T00:13:15.272Z,75.50
2022-07-26T00:15:44.158Z,74.80
2022-07-26T00:18:12.963Z,74.80
2022-07-26T00:20:43.338Z,74.80
2022-07-26T00:23:15.557Z,74.80
2022-07-26T00:25:48.070Z,74.80
2022-07-26T00:28:19.622Z,74.50
2022-07-26T00:30:54.001Z,74.90
2022-07-26T00:33:22.493Z,74.70
2022-07-26T00:35:52.240Z,74.30
2022-07-26T00:38:28.660Z,74.30
2022-07-26T00:41:10.048Z,74.40
2022-07-26T00:43:55.799Z,74.10
2022-07-26T00:46:24.471Z,73.60
2022-07-26T00:48:53.049Z,73.70
2022-07-26T00:51:23.451Z,73.60
2022-07-26T00:54:02.290Z,73.30
2022-07-26T00:56:36.668Z,73.50
2022-07-26T00:59:07.479Z,73.00
2022-07-26T01:02:16.886Z,72.90
2022-07-26T01:05:10.599Z,72.70
2022-07-26T01:07:42.371Z,72.10
2022-07-26T01:10:31.562Z,72.20
2022-07-26T01:13:03.297Z,72.30
2022-07-26T01:15:39.251Z,72.00
2022-07-26T01:18:08.094Z,71.90
2022-07-26T01:20:40.842Z,72.00
2022-07-26T01:23:22.245Z,72.30
2022-07-26T01:26:05.078Z,71.40
2022-07-26T01:28:40.067Z,72.30
2022-07-26T01:31:24.509Z,71.50
2022-07-26T01:33:56.260Z,72.30
2022-07-26T01:36:25.573Z,72.20
2022-07-26T01:38:56.157Z,72.30
2022-07-26T01:41:37.289Z,72.50
2022-07-26T01:44:08.886Z,72.60
2022-07-26T01:46:37.611Z,72.50
2022-07-26T01:49:07.320Z,73.30
2022-07-26T01:51:36.594Z,73.70
2022-07-26T01:54:13.297Z,73.90
2022-07-26T01:56:43.539Z,74.60
2022-07-26T01:59:22.674Z,75.00
2022-07-26T02:01:54.649Z,75.70
2022-07-26T02:04:40.287Z,76.20
2022-07-26T02:07:12.824Z,76.60
2022-07-26T02:09:44.762Z,76.70
2022-07-26T02:12:30.531Z,76.90
2022-07-26T02:15:10.768Z,76.80
2022-07-26T02:17:53.391Z,77.20
2022-07-26T02:20:23.068Z,77.50
2022-07-26T02:22:52.473Z,77.60
2022-07-26T02:25:23.210Z,77.40
2022-07-26T02:27:51.689Z,76.90
2022-07-26T02:30:33.432Z,77.20
2022-07-26T02:36:05.279Z,76.90
2022-07-26T02:38:46.676Z,76.80
2022-07-26T02:41:35.998Z,77.00
2022-07-26T02:44:05.940Z,76.80
2022-07-26T02:46:52.299Z,76.90
2022-07-26T02:49:23.869Z,76.80
2022-07-26T02:51:52.605Z,76.20
2022-07-26T02:54:21.422Z,75.90
2022-07-26T02:57:08.002Z,75.40
2022-07-26T02:59:38.839Z,75.50
2022-07-26T03:02:13.186Z,75.40
2022-07-26T03:04:42.451Z,75.40
2022-07-26T03:10:11.602Z,75.40
2022-07-26T03:12:43.257Z,75.40
2022-07-26T03:15:14.241Z,75.60
2022-07-26T03:17:43.081Z,75.80
2022-07-26T03:20:19.251Z,75.90
2022-07-26T03:22:53.160Z,76.10
2022-07-26T03:25:39.196Z,76.70
2022-07-26T03:28:09.848Z,76.70
2022-07-26T03:30:46.282Z,76.60
2022-07-26T03:33:34.908Z,76.30
2022-07-26T03:36:04.174Z,75.90
2022-07-26T03:38:40.170Z,75.80
2022-07-26T03:41:14.801Z,75.70
2022-07-26T03:43:51.630Z,76.00
2022-07-26T03:46:41.477Z,75.80
2022-07-26T03:49:48.586Z,75.80
2022-07-26T03:52:20.863Z,75.30
2022-07-26T03:54:50.050Z,76.10
2022-07-26T03:57:17.466Z,75.80
2022-07-26T03:59:50.298Z,76.20
2022-07-26T04:02:19.419Z,76.20
2022-07-26T04:04:49.199Z,76.20
2022-07-26T04:07:20.030Z,76.10
2022-07-26T04:09:59.454Z,76.00
2022-07-26T04:12:29.049Z,76.00
2022-07-26T04:15:00.645Z,76.00
2022-07-26T04:17:39.373Z,75.90
2022-07-26T04:20:11.814Z,76.00
2022-07-26T04:22:41.923Z,75.30
2022-07-26T04:25:19.047Z,75.40
2022-07-26T04:27:47.486Z,76.00
2022-07-26T04:30:23.953Z,75.40
2022-07-26T04:33:10.220Z,75.30
2022-07-26T04:38:29.081Z,74.90
2022-07-26T04:40:58.348Z,75.00
2022-07-26T04:43:37.002Z,74.60
2022-07-26T04:46:13.466Z,74.90
2022-07-26T04:48:42.394Z,74.30
2022-07-26T04:51:28.439Z,74.10
2022-07-26T04:53:56.675Z,74.00
2022-07-26T04:56:27.222Z,73.90
2022-07-26T04:58:57.973Z,73.80
2022-07-26T05:01:29.535Z,73.80
2022-07-26T05:03:58.311Z,73.80
2022-07-26T05:06:26.557Z,74.00
2022-07-26T05:08:55.699Z,73.80
2022-07-26T05:11:24.567Z,73.90
2022-07-26T05:13:53.563Z,73.80
2022-07-26T05:16:23.208Z,73.70
2022-07-26T05:18:53.778Z,73.60
2022-07-26T05:21:25.044Z,73.70
2022-07-26T05:23:53.442Z,73.70
2022-07-26T05:26:24.909Z,73.80
2022-07-26T05:28:54.503Z,74.00
2022-07-26T05:31:23.892Z,73.90
2022-07-26T05:33:55.480Z,74.00
2022-07-26T05:36:23.883Z,74.10
2022-07-26T05:38:52.706Z,74.10
2022-07-26T05:41:21.567Z,74.10
2022-07-26T05:43:50.209Z,74.00
2022-07-26T05:46:18.841Z,74.10
2022-07-26T05:48:47.711Z,74.20
2022-07-26T05:51:18.620Z,74.00
2022-07-26T05:53:53.580Z,73.90
2022-07-26T05:56:23.905Z,73.80
2022-07-26T05:58:54.851Z,73.60
2022-07-26T07:22:33.154Z,62.10
2022-07-26T07:25:14.845Z,61.80
2022-07-26T07:28:20.351Z,61.50
2022-07-26T07:46:54.748Z,60.30
2022-07-26T07:49:25.295Z,60.50
2022-07-26T07:51:55.891Z,60.00
2022-07-26T07:54:26.828Z,59.60
2022-07-26T07:57:04.149Z,59.00
2022-07-26T07:59:39.344Z,58.60
2022-07-26T08:02:15.789Z,58.90
2022-07-26T08:04:44.053Z,58.50
2022-07-26T08:07:15.665Z,58.60
2022-07-26T08:09:44.253Z,58.50
2022-07-26T08:12:12.604Z,58.30
2022-07-26T08:18:53.420Z,57.60
2022-07-26T08:21:48.565Z,57.30
2022-07-26T08:24:57.317Z,57.70
2022-07-26T08:27:41.110Z,57.40
2022-07-26T08:30:33.337Z,56.80
2022-07-26T08:33:40.852Z,56.10
2022-07-26T08:36:36.770Z,56.20
2022-07-26T08:39:51.587Z,56.40
2022-07-26T08:43:07.414Z,56.10
2022-07-26T08:46:08.194Z,56.40
2022-07-26T08:48:52.160Z,56.80
2022-07-26T08:51:53.577Z,57.00
2022-07-26T08:54:43.190Z,57.50
2022-07-26T08:57:37.246Z,56.90
2022-07-26T09:00:57.264Z,57.30
2022-07-26T09:03:59.460Z,57.20
2022-07-26T09:06:45.401Z,56.90
2022-07-26T09:09:13.893Z,55.80
2022-07-26T09:11:43.516Z,56.00
2022-07-26T09:14:11.726Z,55.50
2022-07-26T09:16:40.332Z,55.30
2022-07-26T09:19:19.661Z,55.40
2022-07-26T09:21:48.125Z,55.20
2022-07-26T09:24:31.761Z,55.10
2022-07-26T09:27:02.866Z,54.60
2022-07-26T09:29:32.271Z,54.50
2022-07-26T09:32:19.589Z,54.60
2022-07-26T09:34:53.196Z,53.90
2022-07-26T09:37:35.345Z,53.80
2022-07-26T09:40:06.028Z,53.10
2022-07-26T09:42:36.197Z,53.20
2022-07-26T09:45:16.014Z,53.20
2022-07-26T09:47:46.530Z,52.90
2022-07-26T09:50:18.957Z,52.60
2022-07-26T09:53:00.661Z,52.60
2022-07-26T09:55:40.691Z,52.80
2022-07-26T09:58:16.211Z,52.60
2022-07-26T10:00:44.925Z,52.30
2022-07-26T10:03:15.484Z,52.00
2022-07-26T10:05:45.858Z,52.00
2022-07-26T10:08:14.368Z,52.20
2022-07-26T10:10:47.338Z,52.20
2022-07-26T10:13:20.779Z,51.80
2022-07-26T10:15:51.378Z,51.60
2022-07-26T10:18:47.691Z,51.10
2022-07-26T10:21:49.091Z,50.50
2022-07-26T10:24:35.331Z,50.80
2022-07-26T10:27:20.496Z,51.70
2022-07-26T10:30:38.840Z,51.30
2022-07-26T10:33:28.059Z,50.60
2022-07-26T10:36:04.757Z,50.80
2022-07-26T10:38:37.838Z,50.60
2022-07-26T10:41:12.616Z,51.00
2022-07-26T10:43:43.551Z,50.20
2022-07-26T10:46:28.330Z,50.20
2022-07-26T10:48:57.751Z,49.70
2022-07-26T10:51:33.419Z,49.70
2022-07-26T10:54:02.263Z,49.20
2022-07-26T10:56:33.328Z,48.90
2022-07-26T10:59:02.469Z,48.70
2022-07-26T11:01:36.315Z,48.20
2022-07-26T11:04:05.039Z,48.30
2022-07-26T11:06:34.188Z,48.20
2022-07-26T11:09:12.526Z,48.20
2022-07-26T11:11:46.636Z,48.30
2022-07-26T11:14:18.335Z,48.00
2022-07-26T11:16:49.875Z,47.30
2022-07-26T11:19:19.753Z,46.80
2022-07-26T11:21:53.904Z,47.00
2022-07-26T11:24:23.012Z,47.20
2022-07-26T11:26:51.143Z,47.40
2022-07-26T11:29:38.735Z,47.40
2022-07-26T11:32:21.981Z,47.00
2022-07-26T11:35:00.953Z,47.20
2022-07-26T11:37:31.221Z,47.60
2022-07-26T11:39:59.484Z,47.60
2022-07-26T11:42:29.708Z,47.70
2022-07-26T11:44:57.966Z,47.60
2022-07-26T11:47:27.556Z,46.90
2022-07-26T11:50:14.311Z,45.90
2022-07-26T11:52:49.849Z,44.90
2022-07-26T11:55:27.348Z,45.20
2022-07-26T11:57:56.124Z,44.80
2022-07-26T12:00:25.026Z,44.30
2022-07-26T12:02:56.124Z,43.40
2022-07-26T12:05:26.908Z,42.80
2022-07-26T12:07:57.005Z,43.10
2022-07-26T12:10:28.598Z,42.30
2022-07-26T12:13:11.319Z,42.00
2022-07-26T12:15:50.899Z,42.00
2022-07-26T12:18:28.547Z,42.00
2022-07-26T12:21:06.212Z,41.40
2022-07-26T12:23:45.648Z,41.80
2022-07-26T12:26:24.729Z,41.30
2022-07-26T12:28:53.015Z,40.70
2022-07-26T12:31:25.395Z,40.00
2022-07-26T12:33:57.456Z,38.40
2022-07-26T12:36:27.906Z,37.90
2022-07-26T12:38:58.309Z,37.70
2022-07-26T12:41:34.467Z,37.20
2022-07-26T12:44:06.154Z,36.70
2022-07-26T12:46:35.107Z,36.60
2022-07-26T12:49:05.743Z,35.50
2022-07-26T12:51:34.381Z,34.70
2022-07-26T12:54:03.453Z,34.50
2022-07-26T12:56:33.933Z,34.80
2022-07-26T12:59:02.263Z,35.20
2022-07-26T13:01:33.389Z,34.80
2022-07-26T13:04:05.589Z,34.40
2022-07-26T13:06:33.875Z,34.60
2022-07-26T13:09:02.056Z,34.90
2022-07-26T13:11:30.313Z,35.50
2022-07-26T13:13:58.603Z,36.40
2022-07-26T13:16:26.795Z,37.40
2022-07-26T13:18:54.885Z,38.40
2022-07-26T13:21:25.128Z,38.90
2022-07-26T13:23:56.295Z,39.60
2022-07-26T13:26:24.530Z,40.40
2022-07-26T13:28:53.075Z,40.80
2022-07-26T13:31:21.418Z,41.20
2022-07-26T13:33:52.097Z,41.60
2022-07-26T13:36:22.376Z,42.00
2022-07-26T13:38:51.856Z,42.50
2022-07-26T13:41:20.078Z,42.90
2022-07-26T13:43:48.224Z,43.30
2022-07-26T13:46:16.719Z,43.70
2022-07-26T13:48:59.871Z,43.80
2022-07-26T13:51:45.023Z,44.10
2022-07-26T13:54:16.280Z,44.00
2022-07-26T13:56:44.896Z,44.00
2022-07-26T13:59:15.174Z,44.00
2022-07-26T14:01:46.095Z,44.30
2022-07-26T14:04:15.788Z,44.40
2022-07-26T14:06:47.031Z,44.70
2022-07-26T14:09:17.799Z,45.20
2022-07-26T14:11:48.221Z,44.30
2022-07-26T14:14:16.391Z,43.70
2022-07-26T14:16:48.155Z,43.50
2022-07-26T14:19:19.766Z,43.50
2022-07-26T14:21:59.257Z,43.40
2022-07-26T14:24:30.268Z,43.40
2022-07-26T14:26:59.541Z,43.40
2022-07-26T14:29:28.786Z,43.30
2022-07-26T14:31:57.088Z,43.40
2022-07-26T14:34:25.430Z,43.50
2022-07-26T14:36:55.701Z,43.40
2022-07-26T14:39:23.869Z,43.50
2022-07-26T14:41:53.345Z,43.70
2022-07-26T14:44:21.545Z,44.60
2022-07-26T14:46:51.736Z,44.90
2022-07-26T14:49:22.386Z,44.50
2022-07-26T14:51:50.756Z,44.60
2022-07-26T14:54:21.114Z,44.60
2022-07-26T14:56:49.352Z,44.80
2022-07-26T14:59:19.050Z,44.70
2022-07-26T15:01:47.417Z,44.70
2022-07-26T15:04:15.569Z,44.90
2022-07-26T15:06:43.688Z,45.20
2022-07-26T15:09:11.819Z,45.40
2022-07-26T15:11:40.953Z,45.60
2022-07-26T15:14:11.704Z,45.70
2022-07-26T15:16:41.531Z,45.90
2022-07-26T15:19:09.811Z,46.40
2022-07-26T15:21:37.912Z,46.70
2022-07-26T15:24:06.346Z,46.90
2022-07-26T15:26:34.549Z,47.10
2022-07-26T15:29:04.926Z,47.40
2022-07-26T15:31:36.607Z,47.30
2022-07-26T15:34:09.860Z,47.20
2022-07-26T15:36:40.526Z,46.90
2022-07-26T15:39:17.642Z,46.40
2022-07-26T15:41:47.153Z,46.60
2022-07-26T15:44:17.608Z,46.70
2022-07-26T15:46:48.002Z,47.00
2022-07-26T15:49:20.697Z,47.30
2022-07-26T15:51:49.890Z,47.60
2022-07-26T15:54:18.111Z,48.00
2022-07-26T15:56:46.225Z,48.40
2022-07-26T15:59:14.371Z,48.60
2022-07-26T16:01:42.916Z,48.40
2022-07-26T16:04:11.514Z,48.10
2022-07-26T16:06:43.996Z,48.80
2022-07-26T16:09:17.406Z,48.10
2022-07-26T16:11:46.955Z,48.30
2022-07-26T16:14:15.094Z,48.20
2022-07-26T16:16:43.342Z,48.80
2022-07-26T16:19:12.075Z,49.00
2022-07-26T16:21:40.827Z,48.80
2022-07-26T16:24:10.599Z,48.80
2022-07-26T16:26:38.815Z,48.70
2022-07-26T16:29:07.004Z,48.60
2022-07-26T16:31:36.935Z,48.70
2022-07-26T16:34:05.255Z,48.80
2022-07-26T16:36:33.669Z,49.10
2022-07-26T16:39:04.418Z,48.80
2022-07-26T16:41:34.048Z,48.10
2022-07-26T16:44:02.099Z,47.90
2022-07-26T16:46:30.461Z,48.20
2022-07-26T16:48:58.661Z,48.30
2022-07-26T16:51:27.150Z,48.60
2022-07-26T16:53:57.436Z,48.90
2022-07-26T16:56:27.890Z,49.10
2022-07-26T16:58:57.572Z,49.40
2022-07-26T17:01:25.868Z,49.50
2022-07-26T17:03:54.047Z,49.70
2022-07-26T17:06:22.532Z,49.90
2022-07-26T17:08:50.712Z,50.00
2022-07-26T17:11:18.782Z,50.40
2022-07-26T17:13:49.646Z,50.50
2022-07-26T17:16:21.591Z,50.70
2022-07-26T17:18:52.815Z,51.00
2022-07-26T17:21:21.024Z,51.20
2022-07-26T17:23:49.477Z,51.60
2022-07-26T17:26:17.935Z,51.90
2022-07-26T17:28:46.090Z,51.90
2022-07-26T17:31:14.305Z,51.90
2022-07-26T17:33:46.071Z,52.10
2022-07-26T17:36:24.628Z,52.20
2022-07-26T17:38:53.334Z,52.40
2022-07-26T17:41:23.629Z,52.40
2022-07-26T17:44:02.975Z,52.50
2022-07-26T17:46:32.630Z,52.60
2022-07-26T17:49:02.709Z,53.40
2022-07-26T17:51:30.786Z,52.90
2022-07-26T17:53:58.877Z,52.90
2022-07-26T17:56:27.944Z,53.10
2022-07-26T17:58:56.317Z,53.20
2022-07-26T18:01:24.690Z,53.40
2022-07-26T18:03:53.045Z,53.50
2022-07-26T18:06:22.625Z,53.70
2022-07-26T18:08:53.102Z,53.80
2022-07-26T18:11:21.270Z,54.00
2022-07-26T18:13:51.532Z,54.10
2022-07-26T18:16:19.841Z,54.30
2022-07-26T18:18:48.158Z,54.40
2022-07-26T18:21:16.331Z,54.50
2022-07-26T18:24:06.685Z,54.70
2022-07-26T18:26:36.113Z,54.90
2022-07-26T18:29:04.510Z,54.90
2022-07-26T18:31:32.750Z,55.00
2022-07-26T18:34:06.258Z,55.10
2022-07-26T18:36:34.855Z,55.00
2022-07-26T18:39:09.705Z,55.10
2022-07-26T18:41:38.258Z,55.20
2022-07-26T18:44:06.864Z,55.40
2022-07-26T18:46:35.140Z,55.50
2022-07-26T18:49:03.593Z,55.70
2022-07-26T18:51:33.485Z,55.80
2022-07-26T18:54:01.591Z,55.90
2022-07-26T18:56:33.246Z,56.20
2022-07-26T18:59:01.356Z,56.30
2022-07-26T19:01:31.958Z,56.40
2022-07-26T19:04:04.699Z,56.50
2022-07-26T19:06:38.129Z,56.60
2022-07-26T19:09:06.631Z,56.70
2022-07-26T19:11:37.529Z,56.90
2022-07-26T19:14:06.001Z,57.00
2022-07-26T19:16:34.295Z,57.20
2022-07-26T19:19:02.435Z,57.30
2022-07-26T19:21:30.804Z,57.40
2022-07-26T19:23:58.955Z,57.40
2022-07-26T19:26:27.620Z,57.60
2022-07-26T19:28:59.276Z,57.80
2022-07-26T19:31:27.468Z,57.90
2022-07-26T19:33:55.594Z,58.00
2022-07-26T19:36:26.198Z,58.10
2022-07-26T19:38:55.774Z,58.10
2022-07-26T19:41:24.145Z,58.30
2022-07-26T19:43:52.341Z,58.30
2022-07-26T19:46:21.907Z,58.50
2022-07-26T19:48:50.154Z,58.60
2022-07-26T19:51:18.532Z,58.50
2022-07-26T19:53:46.771Z,58.70
2022-07-26T19:56:15.381Z,58.80
2022-07-26T19:58:43.482Z,59.10
2022-07-26T20:01:11.716Z,59.10
2022-07-26T20:03:41.176Z,59.20
2022-07-26T20:06:09.906Z,59.30
2022-07-26T20:08:38.056Z,59.30
2022-07-26T20:11:06.385Z,59.30
2022-07-26T20:13:35.281Z,59.40
2022-07-26T20:16:03.552Z,59.60
2022-07-26T20:18:33.017Z,59.60
2022-07-26T20:21:02.547Z,59.70
2022-07-26T20:23:30.699Z,59.90
2022-07-26T20:26:01.892Z,59.90
2022-07-26T20:28:32.219Z,60.80
2022-07-26T20:31:02.719Z,60.20
2022-07-26T20:33:32.768Z,60.30
2022-07-26T20:36:02.273Z,60.40
2022-07-26T20:38:30.527Z,60.40
2022-07-26T20:41:02.976Z,60.60
2022-07-26T20:43:32.594Z,61.50
2022-07-26T20:46:02.723Z,60.90
2022-07-26T20:48:30.864Z,60.90
2022-07-26T20:50:58.936Z,61.10
2022-07-26T20:53:30.515Z,61.20
2022-07-26T20:55:58.716Z,61.50
2022-07-26T20:58:26.797Z,61.60
2022-07-26T21:00:55.031Z,61.60
2022-07-26T21:03:26.245Z,61.80
2022-07-26T21:05:54.406Z,61.80
2022-07-26T21:08:22.838Z,62.00
2022-07-26T21:10:52.367Z,62.00
2022-07-26T21:13:23.168Z,62.10
2022-07-26T21:15:53.303Z,62.10
2022-07-26T21:18:21.783Z,62.10
2022-07-26T21:20:49.919Z,62.20
2022-07-26T21:23:18.464Z,62.30
2022-07-26T21:25:47.341Z,62.30
2022-07-26T21:28:19.091Z,62.20
2022-07-26T21:30:47.177Z,62.40
2022-07-26T21:33:15.924Z,62.30
2022-07-26T21:35:43.998Z,62.20
2022-07-26T21:38:12.236Z,62.30
2022-07-26T21:40:40.583Z,62.10
2022-07-26T21:43:11.168Z,62.20
2022-07-26T21:45:41.104Z,62.00
2022-07-26T21:48:09.452Z,62.00
2022-07-26T21:50:37.624Z,62.10
2022-07-26T21:53:05.728Z,62.00
2022-07-26T21:55:33.977Z,62.10
2022-07-26T21:58:02.137Z,62.20
2022-07-26T22:00:32.454Z,62.20
2022-07-26T22:03:01.968Z,62.10
2022-07-26T22:05:37.968Z,62.10
2022-07-26T22:08:10.588Z,62.10
2022-07-26T22:10:44.649Z,62.10
2022-07-26T22:13:16.385Z,62.00
2022-07-26T22:15:44.824Z,62.10
2022-07-26T22:18:15.204Z,62.20
2022-07-26T22:20:47.366Z,62.30
2022-07-26T22:23:15.749Z,62.20
2022-07-26T22:25:44.226Z,62.30
2022-07-26T22:28:18.348Z,62.50
2022-07-26T22:30:47.286Z,62.20
2022-07-26T22:33:17.248Z,62.30
2022-07-26T22:35:45.323Z,62.50
2022-07-26T22:38:13.843Z,62.40
2022-07-26T22:40:43.561Z,62.50
2022-07-26T22:43:12.637Z,62.60
2022-07-26T22:45:43.795Z,62.70
2022-07-26T22:48:12.005Z,62.90
2022-07-26T22:50:41.609Z,62.80
2022-07-26T22:53:09.721Z,62.80
2022-07-26T22:55:38.016Z,63.00
2022-07-26T22:58:06.216Z,62.90
2022-07-26T23:00:34.474Z,63.00
2022-07-26T23:03:02.644Z,63.10
2022-07-26T23:05:45.579Z,63.00
2022-07-26T23:11:07.756Z,63.00
2022-07-26T23:13:35.866Z,62.90
2022-07-26T23:16:04.358Z,62.80
2022-07-26T23:18:34.062Z,62.60
2022-07-26T23:21:03.762Z,62.60
2022-07-26T23:23:36.835Z,62.70
2022-07-26T23:26:07.412Z,62.70
2022-07-26T23:28:38.407Z,62.90
2022-07-26T23:31:10.753Z,63.40
2022-07-26T23:33:52.775Z,63.10
2022-07-26T23:36:26.186Z,63.40
2022-07-26T23:38:56.749Z,63.30
2022-07-26T23:41:25.472Z,63.50
2022-07-26T23:43:54.167Z,63.60
2022-07-26T23:46:22.881Z,63.80
2022-07-26T23:48:51.598Z,63.80
2022-07-26T23:51:20.433Z,63.90
2022-07-26T23:53:48.657Z,64.00
2022-07-26T23:56:18.713Z,64.10
2022-07-26T23:58:47.018Z,64.10
